Flight Track Log - Related Links

Times and Time Zones

All times are in EDT time to prevent confusion due to time zone crossing. See the N600GD flight status page for this flight to view local times or setup timezone preferences in your user account.

Time Position Orientation Groundspeed Altitude Reporting Facility
EDT Latitude Longitude Course Direction KTS MPH feet Rate Location/Type
Fri 06:14:00 PM 44.6023 -72.2167 180° South  Level FlightAware Approximate
Fri 06:55:08 PM 44.7067 -72.1247 180° South 160 184 5,300  Level Boston Center
Fri 06:56:08 PM 44.6692 -72.1044 159° South 155 178 6,000 636 Climbing Boston Center
Fri 06:57:20 PM 44.6317 -72.0814 156° South 150 173 6,700 636 Climbing Boston Center
Fri 06:58:20 PM 44.5836 -72.0553 159° South 150 173 7,400 600 Climbing Boston Center
Fri 06:59:20 PM 44.5439 -72.0322 158° South 150 173 7,900 500 Climbing Boston Center
Fri 07:00:20 PM 44.5000 -72.0122 162° South 150 173 8,400 500 Climbing Boston Center
Fri 07:01:20 PM 44.4583 -71.9892 158° South 155 178 8,900 400 Climbing Boston Center
Fri 07:02:20 PM 44.4144 -71.9664 160° South 160 184 9,200 100 Climbing Boston Center
Fri 07:03:20 PM 44.3664 -71.9406 159° South 172 198 9,100 -100 Descending Boston Center
Fri 07:04:20 PM 44.3142 -71.9119 159° South 190 219 9,000 -50 Descending Boston Center
Fri 07:05:20 PM 44.2661 -71.8836 157° South 190 219 9,000  Level Boston Center
Fri 07:06:20 PM 44.2181 -71.8578 159° South 190 219 9,000  Level Boston Center
Fri 07:07:20 PM 44.1700 -71.8322 159° South 190 219 9,000  Level Boston Center
Fri 07:08:20 PM 44.1219 -71.8067 159° South 190 219 9,000  Level Boston Center
Fri 07:09:20 PM 44.0844 -71.7842 157° South 190 219 9,000  Level Boston Center
Fri 07:10:20 PM 44.0239 -71.7531 160° South 190 219 9,000  Level Boston Center
Fri 07:11:20 PM 43.9778 -71.7333 163° South 190 219 9,000  Level Boston Center
Fri 07:12:20 PM 43.9319 -71.7078 158° South 190 219 9,000  Level Boston Center
Fri 07:13:20 PM 43.8839 -71.6853 161° South 190 219 9,000  Level Boston Center
Fri 07:14:20 PM 43.8336 -71.6600 160° South 190 219 9,000  Level Boston Center
Fri 07:15:20 PM 43.7856 -71.6319 157° South 190 219 9,000  Level Boston Center
Fri 07:16:20 PM 43.7375 -71.6067 159° South 190 219 9,000  Level Boston Center
Fri 07:17:20 PM 43.6892 -71.5817 159° South 190 219 9,000  Level Boston Center
Fri 07:18:20 PM 43.6411 -71.5564 159° South 185 213 9,000  Level Boston Center
Fri 07:19:20 PM 43.5908 -71.5286 158° South 185 213 9,000  Level Boston Center
Fri 07:20:20 PM 43.5469 -71.5064 160° South 191 220 9,000  Level Boston Center
Fri 07:21:20 PM 43.4967 -71.4814 160° South 191 220 9,000  Level Boston Center
Fri 07:22:20 PM 43.4506 -71.4564 159° South 191 220 9,000  Level Boston Center
Fri 07:23:20 PM 43.4006 -71.4314 160° South 191 220 9,000  Level Boston Center
Fri 07:24:20 PM 43.3564 -71.4092 160° South 191 220 9,000  Level Boston Center
Fri 07:25:20 PM 43.3042 -71.3817 159° South 186 214 9,000  Level Boston Center
Fri 07:26:27 PM 43.2500 -71.3500 157° South 185 213 9,000  Level KA90
Fri 07:27:27 PM 43.2000 -71.3333 166° South 182 209 9,000  Level KA90
Fri 07:28:27 PM 43.1500 -71.3000 154° Southeast 182 209 9,000  Level KA90
Fri 07:29:27 PM 43.1167 -71.2833 160° South 183 211 9,000  Level KA90
Fri 07:30:27 PM 43.0667 -71.2500 154° Southeast 180 207 9,000  Level KA90
Fri 07:31:27 PM 43.0167 -71.2333 166° South 185 213 9,000  Level KA90
Fri 07:32:24 PM 42.9667 -71.2000 154° Southeast 178 205 9,000 -51 Level KA90
Fri 07:33:24 PM 42.9333 -71.1833 160° South 176 203 8,900 -347 Descending KA90
Fri 07:34:25 PM 42.8667 -71.1667 170° South 194 223 8,300 -537 Descending KA90
Fri 07:35:27 PM 42.8167 -71.1333 154° Southeast 192 221 7,800 -492 Descending KA90
Fri 07:36:27 PM 42.7833 -71.1167 160° South 190 219 7,300 -400 Descending KA90
Fri 07:37:27 PM 42.7333 -71.0833 154° Southeast 182 209 7,000 -158 Descending KA90
Fri 07:38:21 PM 42.6833 -71.0833 180° South 173 199 7,000  Level KA90
Fri 07:39:21 PM 42.6333 -71.0833 180° South 161 185 7,000  Level KA90
Fri 07:40:18 PM 42.6000 -71.1167 216° Southwest 159 183 7,000  Level KA90
Fri 07:41:18 PM 42.5667 -71.1500 216° Southwest 161 185 7,000  Level KA90
Fri 07:42:21 PM 42.5167 -71.1667 194° South 172 198 7,000  Level KA90
Fri 07:43:21 PM 42.4667 -71.1500 166° South 175 201 7,000  Level KA90
Fri 07:44:21 PM 42.4333 -71.1333 160° South 175 201 7,000  Level KA90
Fri 07:45:20 PM 42.3833 -71.1000 154° Southeast 173 199 7,000  Level KA90
Fri 07:46:21 PM 42.3667 -71.0500 114° Southeast 175 201 7,000  Level KA90
Fri 07:47:21 PM 42.3500 -70.9833 109° East 174 200 7,000 -98 Level KA90
Fri 07:48:24 PM 42.3167 -70.9167 124° Southeast 182 209 6,800 -286 Descending KA90
Fri 07:49:27 PM 42.2833 -70.8667 132° Southeast 179 206 6,400 -450 Descending KA90
Fri 07:50:24 PM 42.2500 -70.8167 132° Southeast 181 208 5,900 -550 Descending KA90
Fri 07:51:27 PM 42.2167 -70.8333 200° South 176 203 5,300 -780 Descending KA90
Fri 07:52:27 PM 42.1667 -70.8500 194° South 184 212 4,300 -1,000 Descending KA90
Fri 07:54:00 PM 42.1250 -70.8738 90° East  Level Estimated

Login

Don't have an account? Register now (free) for customized features, flight alerts, and more!